Time;durP1;ratioP1;P1;durP2;ratioP2;P2;SDS_P1;SDS_P2;PMS_P1;PMS_P2;Temp;Humidity;BMP_temperature;BMP_pressure;BME280_temperature;BME280_humidity;BME280_pressure;Samples;Min_cycle;Max_cycle;Signal;HPM_P1;HPM_P2
2023/10/27 00:00:36;;;;;;;8.40;5.03;;;;;;;7.86;58.23;99497.16;4978723;28;20060;-72
2023/10/27 00:03:01;;;;;;;7.65;4.07;;;;;;;7.91;58.09;99500.38;4979789;28;20500;-72
2023/10/27 00:05:27;;;;;;;9.40;5.20;;;;;;;7.79;58.30;99500.97;4964205;28;20043;-74
2023/10/27 00:07:52;;;;;;;8.07;4.82;;;;;;;7.87;58.14;99487.56;4978748;28;20050;-73
2023/10/27 00:10:18;;;;;;;7.72;5.05;;;;;;;7.87;58.28;99477.16;4984461;28;20078;-72
2023/10/27 00:12:43;;;;;;;8.30;4.60;;;;;;;7.94;57.96;99478.56;4982762;28;20042;-72
2023/10/27 00:15:09;;;;;;;8.10;4.93;;;;;;;7.89;58.10;99477.94;4983923;28;20087;-73
2023/10/27 00:17:35;;;;;;;7.63;4.85;;;;;;;7.90;57.96;99477.03;4979629;28;20054;-74
2023/10/27 00:20:05;;;;;;;9.13;5.57;;;;;;;7.83;58.05;99473.91;4980600;28;20033;-73
2023/10/27 00:22:32;;;;;;;6.57;4.40;;;;;;;7.88;58.18;99479.69;4978901;28;20037;-72
2023/10/27 00:24:59;;;;;;;6.68;4.45;;;;;;;7.97;57.93;99473.19;4964216;28;20872;-72
2023/10/27 00:27:24;;;;;;;8.07;4.88;;;;;;;8.02;58.03;99475.56;4981690;28;20042;-70
2023/10/27 00:29:50;;;;;;;9.02;5.47;;;;;;;8.03;57.73;99467.69;4981029;28;20045;-68
2023/10/27 00:32:15;;;;;;;7.38;4.53;;;;;;;8.00;57.89;99472.19;4978178;28;20034;-68
2023/10/27 00:34:41;;;;;;;7.60;4.55;;;;;;;7.87;58.08;99466.75;4977844;28;20244;-68
2023/10/27 00:37:07;;;;;;;7.65;5.35;;;;;;;7.83;58.24;99467.88;4979213;28;20026;-68
2023/10/27 00:39:32;;;;;;;8.60;4.68;;;;;;;7.79;58.04;99467.16;4976029;28;20465;-70
2023/10/27 00:41:58;;;;;;;9.45;5.22;;;;;;;7.80;58.27;99465.41;4978841;28;20041;-68
2023/10/27 00:44:24;;;;;;;8.20;4.97;;;;;;;7.85;57.99;99463.44;4975534;28;20033;-68
2023/10/27 00:46:51;;;;;;;7.22;4.20;;;;;;;7.79;58.13;99464.56;4979516;28;20448;-68
2023/10/27 00:49:17;;;;;;;5.88;3.90;;;;;;;7.62;58.46;99460.19;4967239;28;20038;-70
2023/10/27 00:51:46;;;;;;;8.65;5.43;;;;;;;7.81;57.89;99454.09;4979743;28;20038;-71
2023/10/27 00:54:14;;;;;;;10.35;4.63;;;;;;;7.69;58.32;99447.72;4962606;28;20031;-69
2023/10/27 00:56:40;;;;;;;9.45;5.15;;;;;;;7.69;58.32;99446.00;4976750;28;20155;-71
2023/10/27 00:59:06;;;;;;;8.75;5.80;;;;;;;7.82;57.53;99432.34;4993025;28;22293;-70
2023/10/27 01:01:33;;;;;;;8.73;5.00;;;;;;;7.72;58.16;99432.81;4974818;28;20128;-70
2023/10/27 01:03:59;;;;;;;8.77;4.55;;;;;;;7.74;57.97;99431.00;4979778;28;20107;-70
2023/10/27 01:06:25;;;;;;;6.13;4.45;;;;;;;7.77;57.98;99435.19;4976251;28;20042;-69
2023/10/27 01:08:52;;;;;;;8.45;4.88;;;;;;;7.77;57.97;99429.97;4976184;28;20049;-70
2023/10/27 01:11:18;;;;;;;5.45;4.45;;;;;;;7.81;57.96;99433.28;4981892;28;20034;-70
2023/10/27 01:13:44;;;;;;;6.78;4.28;;;;;;;7.81;57.79;99425.47;4989613;28;20045;-70
2023/10/27 01:16:09;;;;;;;7.10;4.22;;;;;;;7.57;58.38;99425.81;4983214;28;20041;-70
2023/10/27 01:18:35;;;;;;;7.05;3.85;;;;;;;7.59;58.35;99430.94;4985751;28;20540;-70
2023/10/27 01:21:01;;;;;;;8.32;4.80;;;;;;;7.72;58.04;99422.41;4987328;28;20084;-71
2023/10/27 01:23:26;;;;;;;7.55;4.75;;;;;;;7.70;58.05;99424.25;4977928;28;20489;-70
2023/10/27 01:25:52;;;;;;;6.72;4.78;;;;;;;7.70;58.18;99423.44;4969525;28;20280;-70
2023/10/27 01:28:18;;;;;;;8.43;4.90;;;;;;;7.71;58.12;99430.28;4978406;28;20034;-71
2023/10/27 01:30:43;;;;;;;6.60;3.83;;;;;;;7.82;57.70;99433.19;4983481;28;20064;-70
2023/10/27 01:33:09;;;;;;;6.80;4.78;;;;;;;7.89;57.69;99424.16;4981307;28;20076;-70
2023/10/27 01:35:35;;;;;;;7.00;4.50;;;;;;;7.80;57.87;99418.56;4982445;28;20038;-71
2023/10/27 01:38:01;;;;;;;5.30;3.78;;;;;;;7.72;57.72;99413.78;4981356;28;20808;-70
2023/10/27 01:40:27;;;;;;;6.90;4.30;;;;;;;7.72;57.84;99409.41;4966813;28;20521;-71
2023/10/27 01:42:53;;;;;;;7.57;5.15;;;;;;;7.80;57.77;99405.56;4971916;28;20042;-71
2023/10/27 01:45:18;;;;;;;7.07;3.80;;;;;;;7.71;58.26;99399.09;4972362;28;20045;-70
2023/10/27 01:47:44;;;;;;;6.55;4.72;;;;;;;7.77;57.97;99395.34;4982116;28;20046;-71
2023/10/27 01:50:09;;;;;;;6.72;4.07;;;;;;;7.66;58.36;99388.91;4989827;28;20026;-71
2023/10/27 01:52:35;;;;;;;5.28;3.40;;;;;;;7.64;58.41;99398.56;4979785;28;20603;-70
2023/10/27 01:55:00;;;;;;;5.55;3.97;;;;;;;7.65;58.52;99391.63;4982230;28;20786;-69
2023/10/27 01:57:26;;;;;;;6.13;3.22;;;;;;;7.71;58.20;99399.94;4980801;28;20947;-68
2023/10/27 01:59:52;;;;;;;5.70;3.38;;;;;;;7.53;58.70;99399.09;4983673;28;20116;-66
2023/10/27 02:02:18;;;;;;;5.95;4.07;;;;;;;7.57;58.43;99399.78;4981240;28;20206;-72
2023/10/27 02:04:44;;;;;;;6.38;3.88;;;;;;;7.69;58.29;99391.38;4985089;28;20030;-72
2023/10/27 02:07:09;;;;;;;6.45;4.30;;;;;;;7.73;57.68;99408.50;4985254;28;20068;-72
2023/10/27 02:09:35;;;;;;;8.30;4.30;;;;;;;7.79;57.48;99402.13;4981145;28;20026;-72
2023/10/27 02:12:00;;;;;;;6.05;4.40;;;;;;;7.76;57.29;99401.44;4986222;28;20488;-71
2023/10/27 02:14:26;;;;;;;7.40;4.45;;;;;;;7.61;58.08;99411.72;4976613;28;20042;-69
2023/10/27 02:16:52;;;;;;;6.38;4.13;;;;;;;7.58;57.98;99395.44;4982402;28;20037;-69
2023/10/27 02:19:17;;;;;;;7.13;4.70;;;;;;;7.64;57.89;99402.94;4975955;28;20037;-69
2023/10/27 02:21:43;;;;;;;7.10;3.92;;;;;;;7.71;57.82;99384.34;4989136;28;20040;-69
2023/10/27 02:24:08;;;;;;;3.72;3.15;;;;;;;7.60;57.84;99397.06;4978196;28;20038;-68
2023/10/27 02:26:35;;;;;;;7.32;4.65;;;;;;;7.64;57.82;99390.75;4985040;28;21274;-68
2023/10/27 02:29:01;;;;;;;5.93;4.03;;;;;;;7.67;57.49;99398.41;4986807;28;20045;-67
2023/10/27 02:31:27;;;;;;;10.20;5.53;;;;;;;7.58;57.93;99398.03;4976444;28;20038;-66
2023/10/27 02:33:52;;;;;;;10.95;5.15;;;;;;;7.60;58.00;99394.47;4981324;28;20039;-75
2023/10/27 02:36:18;;;;;;;6.65;4.70;;;;;;;7.60;58.15;99402.25;4978818;28;20041;-75
2023/10/27 02:38:43;;;;;;;8.00;4.95;;;;;;;7.51;58.22;99397.47;4990350;28;20058;-76
2023/10/27 02:41:09;;;;;;;7.03;4.47;;;;;;;7.44;58.69;99391.75;4967406;28;20739;-75
2023/10/27 02:43:35;;;;;;;8.13;5.43;;;;;;;7.50;58.29;99403.59;4979542;28;20993;-70
2023/10/27 02:46:02;;;;;;;10.38;5.68;;;;;;;7.56;58.09;99405.94;4982632;28;20034;-70
2023/10/27 02:48:27;;;;;;;11.65;5.68;;;;;;;7.56;57.93;99399.88;4979003;28;20045;-70
2023/10/27 02:50:53;;;;;;;11.30;5.60;;;;;;;7.57;58.17;99407.59;4988025;28;20029;-71
2023/10/27 02:53:18;;;;;;;8.95;5.55;;;;;;;7.48;58.71;99408.03;4974837;28;20034;-76
2023/10/27 02:55:45;;;;;;;11.18;6.72;;;;;;;7.28;58.16;99412.47;4989165;28;20206;-75
2023/10/27 02:58:11;;;;;;;14.32;5.88;;;;;;;7.46;57.87;99412.47;4971955;28;20061;-75
2023/10/27 03:00:43;;;;;;;10.13;6.35;;;;;;;7.43;58.20;99404.84;4973771;28;20614;-76
2023/10/27 03:03:09;;;;;;;11.70;5.80;;;;;;;7.45;57.87;99408.19;4987575;28;20034;-75
2023/10/27 03:05:35;;;;;;;13.30;6.90;;;;;;;7.43;57.84;99404.84;4990695;28;20408;-76
2023/10/27 03:08:00;;;;;;;9.32;5.70;;;;;;;7.52;57.93;99409.56;4981089;28;20046;-76
2023/10/27 03:10:26;;;;;;;10.20;6.03;;;;;;;7.56;57.66;99408.53;4981500;28;20036;-76
2023/10/27 03:12:53;;;;;;;10.10;7.15;;;;;;;7.62;57.62;99407.34;4980521;28;20517;-76
2023/10/27 03:15:18;;;;;;;9.80;6.03;;;;;;;7.54;57.62;99402.53;4983132;28;20125;-76
2023/10/27 03:17:45;;;;;;;12.32;7.00;;;;;;;7.56;57.46;99403.34;5011251;28;20180;-73
2023/10/27 03:20:11;;;;;;;13.15;6.40;;;;;;;7.47;57.92;99395.97;4980732;28;20029;-73
2023/10/27 03:22:37;;;;;;;13.32;7.05;;;;;;;7.41;57.96;99386.72;4974822;28;20058;-73
2023/10/27 03:25:03;;;;;;;8.85;5.88;;;;;;;7.56;57.79;99395.53;4977331;28;20125;-72
2023/10/27 03:27:30;;;;;;;12.70;6.45;;;;;;;7.57;57.95;99391.16;4985091;28;20046;-72
2023/10/27 03:29:56;;;;;;;11.57;5.68;;;;;;;7.60;57.54;99397.06;4980570;28;20038;-72
2023/10/27 03:32:23;;;;;;;12.20;6.68;;;;;;;7.46;57.90;99397.69;4974223;28;20046;-72
2023/10/27 03:34:48;;;;;;;17.05;7.05;;;;;;;7.54;57.59;99397.34;4973131;28;20030;-72
2023/10/27 03:37:14;;;;;;;12.15;6.53;;;;;;;7.52;57.72;99393.97;4977640;28;20076;-72
2023/10/27 03:39:40;;;;;;;10.05;6.28;;;;;;;7.52;57.52;99406.97;4975521;28;20068;-71
2023/10/27 03:42:07;;;;;;;9.35;6.30;;;;;;;7.45;57.90;99408.19;4993447;28;20030;-70
2023/10/27 03:44:36;;;;;;;9.80;5.68;;;;;;;7.40;58.15;99397.16;4963951;28;20069;-71
2023/10/27 03:47:01;;;;;;;11.93;6.97;;;;;;;7.48;58.01;99403.66;4979729;28;20085;-69
2023/10/27 03:49:29;;;;;;;10.73;5.82;;;;;;;7.47;58.07;99411.56;4976600;28;20030;-70
2023/10/27 03:51:56;;;;;;;10.38;6.75;;;;;;;7.38;58.26;99401.59;4987913;28;20270;-70
2023/10/27 03:54:21;;;;;;;12.88;6.05;;;;;;;7.43;57.91;99402.22;4974056;28;20058;-70
2023/10/27 03:56:48;;;;;;;10.25;5.57;;;;;;;7.53;57.68;99401.69;4979314;28;20112;-69
2023/10/27 03:59:13;;;;;;;15.10;7.20;;;;;;;7.47;57.82;99407.19;4982876;28;20049;-71
2023/10/27 04:01:40;;;;;;;11.68;5.90;;;;;;;7.47;58.02;99402.00;4976895;28;20027;-70
2023/10/27 04:04:05;;;;;;;10.55;5.78;;;;;;;7.39;58.07;99401.53;4984630;28;20204;-70
2023/10/27 04:06:31;;;;;;;13.93;6.97;;;;;;;7.44;57.79;99406.50;4979763;28;20120;-71
2023/10/27 04:08:56;;;;;;;10.77;5.85;;;;;;;7.51;57.89;99400.06;4980865;28;20037;-67
2023/10/27 04:11:21;;;;;;;12.02;5.95;;;;;;;7.58;57.48;99409.28;4975382;28;20040;-70
2023/10/27 04:13:47;;;;;;;10.23;5.78;;;;;;;7.58;57.42;99400.63;4977924;28;20038;-72
2023/10/27 04:16:12;;;;;;;13.35;6.10;;;;;;;7.56;57.71;99397.25;4980771;28;20034;-70
2023/10/27 04:18:38;;;;;;;10.95;6.32;;;;;;;7.48;57.88;99397.63;4990625;28;20504;-70
2023/10/27 04:21:04;;;;;;;10.90;6.53;;;;;;;7.46;58.01;99399.47;4978494;28;20435;-71
2023/10/27 04:23:30;;;;;;;11.20;5.85;;;;;;;7.50;57.84;99401.00;4973986;28;20086;-70
2023/10/27 04:25:56;;;;;;;10.93;6.50;;;;;;;7.36;58.55;99393.91;4980517;28;20031;-70
2023/10/27 04:28:21;;;;;;;11.05;6.05;;;;;;;7.50;58.08;99395.81;4982884;28;20232;-71
2023/10/27 04:30:47;;;;;;;14.80;7.38;;;;;;;7.35;58.31;99396.56;4977906;28;20068;-70
2023/10/27 04:33:12;;;;;;;13.23;6.95;;;;;;;7.44;58.02;99396.94;4982826;28;20042;-70
2023/10/27 04:35:38;;;;;;;14.73;7.32;;;;;;;7.41;58.04;99391.06;4982653;28;20041;-71
2023/10/27 04:38:03;;;;;;;14.55;7.85;;;;;;;7.52;57.64;99386.16;4976205;28;20508;-71
2023/10/27 04:40:30;;;;;;;12.73;6.65;;;;;;;7.37;57.99;99389.53;4981005;28;20508;-71
2023/10/27 04:42:58;;;;;;;11.20;6.28;;;;;;;7.29;58.17;99395.97;4978850;28;20058;-70
2023/10/27 04:45:25;;;;;;;14.32;7.93;;;;;;;7.32;58.03;99384.56;4984097;28;20037;-72
2023/10/27 04:47:54;;;;;;;13.07;7.05;;;;;;;7.26;58.45;99387.47;4976771;28;20047;-72
2023/10/27 04:50:21;;;;;;;13.35;6.55;;;;;;;7.30;58.34;99383.81;4982504;28;20088;-72
2023/10/27 04:52:46;;;;;;;17.10;7.82;;;;;;;7.33;58.44;99379.31;4978704;28;20136;-72
2023/10/27 04:55:12;;;;;;;13.57;7.03;;;;;;;7.29;58.70;99376.94;4979862;28;20493;-72
2023/10/27 04:57:37;;;;;;;10.73;6.95;;;;;;;7.15;58.97;99375.00;4979655;28;20452;-72
2023/10/27 05:00:04;;;;;;;11.68;6.68;;;;;;;7.12;59.14;99377.78;4979735;28;20042;-71
2023/10/27 05:02:30;;;;;;;12.45;6.15;;;;;;;7.14;59.13;99373.34;4970792;28;20053;-70
2023/10/27 05:04:55;;;;;;;10.98;5.80;;;;;;;7.09;59.37;99364.94;4981273;28;20038;-72
2023/10/27 05:07:24;;;;;;;11.63;6.72;;;;;;;7.18;59.14;99369.69;4976425;28;20378;-72
2023/10/27 05:09:51;;;;;;;13.77;7.35;;;;;;;7.28;58.96;99364.84;4975226;28;20139;-72
2023/10/27 05:12:17;;;;;;;10.85;6.35;;;;;;;7.15;59.23;99359.41;4975498;28;20022;-71
2023/10/27 05:14:42;;;;;;;9.95;6.68;;;;;;;7.21;59.33;99364.31;4961649;28;20038;-72
2023/10/27 05:17:08;;;;;;;9.15;5.53;;;;;;;7.25;59.20;99359.81;4978368;28;20035;-70
2023/10/27 05:19:34;;;;;;;12.63;6.90;;;;;;;7.31;58.69;99355.16;4979780;28;20037;-71
2023/10/27 05:22:04;;;;;;;11.13;5.82;;;;;;;7.21;59.16;99359.13;4985788;28;20041;-72
2023/10/27 05:24:30;;;;;;;12.32;7.15;;;;;;;7.28;59.21;99351.84;4970340;28;20122;-71
2023/10/27 05:26:56;;;;;;;11.18;6.00;;;;;;;7.15;58.93;99356.81;4981335;28;20062;-71
2023/10/27 05:29:21;;;;;;;16.33;6.63;;;;;;;7.21;59.04;99353.09;4973978;28;20034;-70
2023/10/27 05:31:47;;;;;;;11.82;5.85;;;;;;;7.02;59.70;99353.16;4975659;28;22248;-70
2023/10/27 05:34:12;;;;;;;11.38;6.13;;;;;;;7.02;59.58;99353.16;4976881;28;20066;-70
2023/10/27 05:36:38;;;;;;;12.73;7.65;;;;;;;7.01;59.71;99352.31;4983727;28;20041;-67
2023/10/27 05:39:04;;;;;;;9.40;6.40;;;;;;;7.12;59.27;99352.63;4976204;28;20073;-66
2023/10/27 05:41:29;;;;;;;11.23;6.53;;;;;;;7.21;59.39;99347.88;4977796;28;20117;-65
2023/10/27 05:43:55;;;;;;;10.55;6.45;;;;;;;7.23;59.06;99357.28;4977563;28;20038;-66
2023/10/27 05:46:21;;;;;;;11.10;6.45;;;;;;;7.14;59.63;99357.75;4976312;28;20190;-66
2023/10/27 05:48:47;;;;;;;11.75;6.47;;;;;;;7.09;59.40;99354.56;4975530;28;20293;-67
2023/10/27 05:51:13;;;;;;;13.05;6.50;;;;;;;7.24;59.08;99353.75;4980062;28;20439;-65
2023/10/27 05:53:38;;;;;;;13.45;5.68;;;;;;;7.22;59.20;99359.94;4972162;28;20046;-67
2023/10/27 05:56:06;;;;;;;9.35;6.05;;;;;;;7.30;59.28;99350.84;4983092;28;20041;-66
2023/10/27 05:58:35;;;;;;;8.05;4.45;;;;;;;7.31;59.17;99351.69;4982825;28;20042;-67
2023/10/27 06:01:01;;;;;;;8.15;5.53;;;;;;;7.33;58.95;99353.31;4979391;28;20508;-67
2023/10/27 06:03:27;;;;;;;10.93;5.80;;;;;;;7.20;59.57;99356.59;4979947;28;20264;-66
2023/10/27 06:05:52;;;;;;;10.38;6.13;;;;;;;7.10;59.86;99353.63;4978759;28;20176;-66
2023/10/27 06:08:19;;;;;;;9.50;5.30;;;;;;;7.25;59.32;99357.22;4978501;28;20051;-66
2023/10/27 06:10:45;;;;;;;12.55;6.32;;;;;;;7.22;59.49;99359.94;4978205;28;20038;-67
2023/10/27 06:13:11;;;;;;;8.32;4.97;;;;;;;7.19;59.50;99360.13;4985334;28;20104;-66
2023/10/27 06:15:37;;;;;;;10.98;6.38;;;;;;;7.17;59.31;99357.59;4976445;28;20375;-66
2023/10/27 06:18:03;;;;;;;9.05;5.25;;;;;;;7.25;59.48;99360.66;4980773;28;20284;-67
2023/10/27 06:20:29;;;;;;;16.10;5.30;;;;;;;7.24;59.41;99364.16;4979585;28;20026;-66
2023/10/27 06:22:54;;;;;;;9.85;4.57;;;;;;;7.25;59.17;99365.84;4967141;28;20112;-68
2023/10/27 06:25:21;;;;;;;12.77;5.68;;;;;;;7.08;59.74;99364.06;4985510;28;20037;-70
2023/10/27 06:27:47;;;;;;;5.95;4.13;;;;;;;7.21;59.28;99358.28;4975970;28;20130;-69
2023/10/27 06:30:13;;;;;;;8.30;4.25;;;;;;;7.25;59.29;99365.84;4983097;28;20116;-69
2023/10/27 06:32:38;;;;;;;7.82;4.55;;;;;;;7.33;59.00;99362.84;4973660;28;20042;-70
2023/10/27 06:35:04;;;;;;;10.68;5.53;;;;;;;7.20;59.41;99365.25;4972205;28;20042;-73
2023/10/27 06:37:30;;;;;;;9.10;4.93;;;;;;;7.22;59.41;99366.00;4979067;28;20046;-70
2023/10/27 06:39:58;;;;;;;8.50;4.80;;;;;;;7.17;59.37;99365.38;4977723;28;20109;-72
2023/10/27 06:42:25;;;;;;;10.05;5.13;;;;;;;7.18;59.17;99361.88;4978174;28;20547;-71
2023/10/27 06:44:51;;;;;;;7.80;4.55;;;;;;;7.22;59.47;99366.00;4978174;28;20033;-72
2023/10/27 06:47:18;;;;;;;9.32;4.82;;;;;;;7.24;59.11;99371.94;4998441;28;20038;-69
2023/10/27 06:49:44;;;;;;;6.78;3.70;;;;;;;7.17;59.32;99369.75;4978397;28;20060;-69
2023/10/27 06:52:10;;;;;;;6.30;3.13;;;;;;;7.10;59.47;99371.81;4981513;28;20049;-71
2023/10/27 06:54:36;;;;;;;7.75;3.95;;;;;;;7.19;59.16;99376.53;4975682;28;20176;-71
2023/10/27 06:57:01;;;;;;;9.25;4.13;;;;;;;7.21;59.25;99379.06;4979336;28;20128;-69
2023/10/27 06:59:30;;;;;;;7.95;3.67;;;;;;;7.24;59.16;99381.50;4977758;28;20034;-70
2023/10/27 07:01:55;;;;;;;5.55;3.40;;;;;;;7.20;59.43;99378.25;4965341;28;20064;-70
2023/10/27 07:04:21;;;;;;;7.40;3.50;;;;;;;7.15;59.12;99380.19;4977027;28;20078;-71
2023/10/27 07:06:46;;;;;;;6.95;2.78;;;;;;;7.20;59.15;99383.44;4976563;28;20026;-67
2023/10/27 07:09:12;;;;;;;7.45;3.17;;;;;;;7.02;59.22;99382.59;4979874;28;20082;-69
2023/10/27 07:11:38;;;;;;;5.22;3.28;;;;;;;7.15;59.02;99385.41;4975119;28;20125;-69
2023/10/27 07:14:08;;;;;;;7.70;3.70;;;;;;;7.08;59.58;99384.03;4979934;28;20046;-70
2023/10/27 07:16:34;;;;;;;8.90;3.22;;;;;;;7.06;59.44;99385.84;4981305;28;20057;-69
2023/10/27 07:19:00;;;;;;;5.93;2.10;;;;;;;7.17;58.95;99375.78;4968566;28;20536;-70
2023/10/27 07:21:25;;;;;;;8.18;3.05;;;;;;;7.16;58.89;99387.09;4966233;28;20064;-71
2023/10/27 07:23:51;;;;;;;4.72;2.13;;;;;;;7.17;58.78;99383.56;4973790;28;20042;-69
2023/10/27 07:26:17;;;;;;;7.28;3.03;;;;;;;6.96;59.12;99395.88;4977958;28;20038;-65
2023/10/27 07:28:44;;;;;;;7.10;3.45;;;;;;;7.19;58.54;99389.53;4975244;28;20430;-68
2023/10/27 07:31:09;;;;;;;5.68;3.10;;;;;;;6.98;59.56;99388.84;4977632;28;20515;-68
2023/10/27 07:33:38;;;;;;;8.40;2.95;;;;;;;6.99;59.30;99387.91;4972174;28;20039;-68
2023/10/27 07:36:05;;;;;;;9.85;2.95;;;;;;;7.06;58.87;99385.84;4985047;28;20045;-68
2023/10/27 07:38:32;;;;;;;4.97;1.73;;;;;;;7.20;59.00;99386.03;4976681;28;20034;-69
2023/10/27 07:40:59;;;;;;;5.18;1.98;;;;;;;7.09;59.01;99386.56;4977153;28;20341;-70
2023/10/27 07:43:25;;;;;;;5.63;1.98;;;;;;;7.14;59.14;99388.94;4974244;28;20041;-67
2023/10/27 07:45:51;;;;;;;3.22;1.90;;;;;;;7.28;59.06;99385.63;4975311;28;20061;-68
2023/10/27 07:48:16;;;;;;;6.38;2.30;;;;;;;7.21;58.82;99389.47;4975151;28;20258;-68
2023/10/27 07:50:42;;;;;;;5.35;2.00;;;;;;;7.14;59.07;99382.91;4975417;28;20042;-69
2023/10/27 07:53:08;;;;;;;3.83;2.25;;;;;;;7.18;59.11;99385.28;4982152;28;20043;-69
2023/10/27 07:55:35;;;;;;;6.15;1.83;;;;;;;7.21;59.19;99385.09;4980647;28;20034;-70
2023/10/27 07:58:01;;;;;;;3.47;2.00;;;;;;;7.00;59.40;99375.75;4973554;28;20041;-69
2023/10/27 08:00:27;;;;;;;4.95;2.10;;;;;;;7.15;59.29;99382.81;4980032;28;20080;-70
2023/10/27 08:02:54;;;;;;;5.30;2.60;;;;;;;7.15;59.16;99375.00;4973200;28;20038;-70
2023/10/27 08:05:20;;;;;;;5.45;2.50;;;;;;;7.06;59.53;99378.91;4986305;28;20034;-70
2023/10/27 08:07:46;;;;;;;7.63;2.28;;;;;;;6.95;59.98;99372.56;4973469;28;20122;-72
2023/10/27 08:10:11;;;;;;;5.43;2.10;;;;;;;7.06;59.59;99380.66;4979636;28;20083;-70
2023/10/27 08:12:37;;;;;;;7.53;2.13;;;;;;;7.05;59.57;99374.63;4978697;28;20471;-69
2023/10/27 08:15:07;;;;;;;6.50;2.15;;;;;;;7.16;59.02;99378.47;4976661;28;20069;-69
2023/10/27 08:17:33;;;;;;;4.45;2.42;;;;;;;7.19;59.09;99381.75;4976833;28;20080;-69
2023/10/27 08:19:59;;;;;;;5.22;2.42;;;;;;;7.20;59.37;99372.19;4971813;28;20836;-71
2023/10/27 08:22:24;;;;;;;7.20;2.33;;;;;;;6.91;60.09;99375.31;4976898;28;20579;-69
2023/10/27 08:24:50;;;;;;;6.35;2.70;;;;;;;6.98;59.86;99370.66;4971770;28;20104;-71
2023/10/27 08:27:16;;;;;;;4.93;2.22;;;;;;;7.10;59.34;99369.22;4976946;28;20563;-69
2023/10/27 08:29:41;;;;;;;7.88;1.90;;;;;;;7.15;59.17;99375.00;4970995;28;20048;-69
2023/10/27 08:32:08;;;;;;;4.78;1.88;;;;;;;7.11;59.68;99370.91;4975974;28;20026;-72
2023/10/27 08:34:35;;;;;;;5.60;2.05;;;;;;;6.93;59.91;99371.78;4966918;28;20421;-69
2023/10/27 08:37:00;;;;;;;5.95;2.05;;;;;;;6.96;60.19;99376.84;4987359;28;20033;-70
2023/10/27 08:39:27;;;;;;;8.00;2.90;;;;;;;7.07;59.87;99374.56;4976026;28;20066;-69
2023/10/27 08:41:53;;;;;;;4.75;2.38;;;;;;;6.81;60.85;99376.66;4970964;28;20145;-69
2023/10/27 08:44:19;;;;;;;8.18;2.50;;;;;;;6.99;60.20;99371.50;4976476;28;20138;-70
2023/10/27 08:46:45;;;;;;;11.52;5.70;;;;;;;7.19;59.95;99380.91;4967194;28;20728;-70
2023/10/27 08:49:11;;;;;;;4.93;1.92;;;;;;;7.35;59.57;99378.38;4965121;28;20042;-69
2023/10/27 08:51:38;;;;;;;4.15;2.53;;;;;;;7.20;59.53;99378.25;4975540;28;20025;-69
2023/10/27 08:54:05;;;;;;;4.45;1.95;;;;;;;7.18;59.59;99374.88;4970298;28;20046;-70
2023/10/27 08:56:31;;;;;;;6.63;1.88;;;;;;;7.08;60.08;99374.47;4974108;28;20089;-69
2023/10/27 08:58:56;;;;;;;5.10;2.45;;;;;;;6.99;59.87;99372.31;4968232;28;20183;-69
2023/10/27 09:01:22;;;;;;;7.43;2.63;;;;;;;6.68;60.80;99385.94;4974310;28;20048;-69
2023/10/27 09:04:07;;;;;;;5.28;3.08;;;;;;;6.55;61.51;99380.53;4972638;28;20046;-69
2023/10/27 09:06:34;;;;;;;7.13;2.67;;;;;;;6.80;60.93;99380.19;4982104;28;20571;-69
2023/10/27 09:09:00;;;;;;;5.80;3.10;;;;;;;6.90;60.87;99376.22;4973636;28;20033;-69
2023/10/27 09:11:25;;;;;;;6.13;3.17;;;;;;;6.95;60.32;99375.16;4981262;28;20044;-69
2023/10/27 09:13:51;;;;;;;6.43;2.83;;;;;;;6.81;60.75;99387.03;4972889;28;20038;-68
2023/10/27 09:16:26;;;;;;;4.22;2.50;;;;;;;6.73;60.93;99381.41;4975607;28;20483;-69
2023/10/27 09:18:53;;;;;;;6.55;3.08;;;;;;;6.62;61.70;99391.44;4969433;28;20046;-69
2023/10/27 09:21:30;;;;;;;5.85;2.67;;;;;;;6.60;61.49;99386.31;4973905;28;20505;-69
2023/10/27 09:23:55;;;;;;;5.40;3.25;;;;;;;6.63;61.74;99390.53;4970994;28;20100;-69
2023/10/27 09:26:27;;;;;;;5.25;2.70;;;;;;;6.75;61.49;99386.50;4975345;28;20209;-68
2023/10/27 09:29:03;;;;;;;7.57;2.60;;;;;;;6.69;61.37;99396.28;4970413;28;20047;-68
2023/10/27 09:31:35;;;;;;;5.70;2.55;;;;;;;6.69;61.79;99390.25;4973285;28;20069;-68
2023/10/27 09:34:21;;;;;;;7.22;2.78;;;;;;;6.64;62.04;99392.19;4975778;28;20034;-68
2023/10/27 09:36:51;;;;;;;6.60;3.17;;;;;;;6.62;61.68;99386.22;4980887;28;20508;-69
2023/10/27 09:39:20;;;;;;;7.40;3.53;;;;;;;6.58;62.23;99392.50;4979105;28;20042;-67
2023/10/27 09:42:06;;;;;;;10.02;3.30;;;;;;;6.65;61.81;99386.94;4973255;28;20042;-67
2023/10/27 09:44:45;;;;;;;6.80;3.42;;;;;;;6.56;62.19;99395.16;4961110;28;20034;-68
2023/10/27 09:47:36;;;;;;;9.65;4.10;;;;;;;6.44;62.38;99394.00;4958651;28;20045;-66
2023/10/27 09:50:07;;;;;;;7.63;3.45;;;;;;;6.42;62.58;99397.56;4953459;28;20061;-66
2023/10/27 09:52:34;;;;;;;7.20;3.70;;;;;;;6.43;62.58;99392.28;4959229;28;20031;-67
2023/10/27 09:55:05;;;;;;;9.10;3.83;;;;;;;6.40;62.43;99397.63;4941246;28;20065;-67
2023/10/27 09:57:32;;;;;;;10.23;3.35;;;;;;;6.46;62.54;99401.69;4974000;28;20037;-66
2023/10/27 10:00:00;;;;;;;7.30;4.25;;;;;;;6.37;62.41;99392.56;4954307;28;22151;-67
2023/10/27 10:02:29;;;;;;;8.95;4.10;;;;;;;6.49;62.17;99398.97;4953832;28;20046;-66
2023/10/27 10:05:00;;;;;;;6.35;3.65;;;;;;;6.53;62.05;99392.72;4960337;28;20031;-67
2023/10/27 10:07:33;;;;;;;10.50;4.22;;;;;;;6.53;62.17;99391.88;4957634;28;20043;-69
2023/10/27 10:10:29;;;;;;;10.93;4.20;;;;;;;6.33;62.48;99391.06;4955589;28;20066;-67
2023/10/27 10:13:03;;;;;;;8.93;4.05;;;;;;;6.39;62.66;99393.34;4953327;28;20925;-67
2023/10/27 10:15:42;;;;;;;11.95;4.88;;;;;;;6.64;62.06;99394.78;4962403;28;20042;-66
2023/10/27 10:18:19;;;;;;;10.07;4.32;;;;;;;6.49;62.13;99386.81;4953781;28;20433;-67
2023/10/27 10:20:45;;;;;;;8.13;3.58;;;;;;;6.56;62.14;99396.94;4958738;28;20057;-67
2023/10/27 10:23:11;;;;;;;8.73;4.18;;;;;;;6.77;61.62;99393.28;4962314;28;20505;-66
2023/10/27 10:25:52;;;;;;;6.65;3.10;;;;;;;6.71;61.84;99391.03;4960933;28;20046;-66
2023/10/27 10:28:17;;;;;;;8.38;3.53;;;;;;;6.62;61.88;99396.63;4957279;28;20042;-67
2023/10/27 10:31:17;;;;;;;11.02;3.92;;;;;;;6.72;61.77;99397.03;4957550;28;20046;-69
2023/10/27 10:33:48;;;;;;;6.22;3.60;;;;;;;6.57;62.24;99393.41;4958279;28;20529;-66
2023/10/27 10:36:22;;;;;;;7.28;3.83;;;;;;;6.63;62.02;99393.13;4965605;28;20037;-66
2023/10/27 10:38:55;;;;;;;5.30;3.35;;;;;;;6.82;61.85;99391.34;4951779;28;20088;-65
2023/10/27 10:41:21;;;;;;;8.27;3.67;;;;;;;6.86;61.63;99390.28;4957073;28;20128;-67
2023/10/27 10:44:13;;;;;;;4.45;2.78;;;;;;;6.94;61.71;99392.50;4955301;28;20129;-66
2023/10/27 10:46:38;;;;;;;5.82;2.40;;;;;;;6.79;61.69;99395.84;4965285;28;20037;-66
2023/10/27 10:49:04;;;;;;;6.63;3.67;;;;;;;6.70;62.00;99394.50;4953031;28;20050;-65
2023/10/27 10:51:30;;;;;;;8.75;3.60;;;;;;;6.78;62.01;99394.16;4957289;28;20519;-66
2023/10/27 10:53:56;;;;;;;7.18;2.90;;;;;;;6.77;61.74;99392.47;4959949;28;20073;-66
2023/10/27 10:56:23;;;;;;;4.53;2.38;;;;;;;6.76;62.04;99389.03;4960798;28;20129;-66
2023/10/27 10:58:48;;;;;;;5.43;3.22;;;;;;;6.80;62.01;99390.56;4961927;28;20054;-66
2023/10/27 11:01:19;;;;;;;5.93;2.42;;;;;;;6.81;61.98;99384.44;4955004;28;20034;-65
2023/10/27 11:03:50;;;;;;;7.57;3.05;;;;;;;6.81;62.17;99387.03;4958980;28;20061;-66
2023/10/27 11:06:19;;;;;;;6.35;3.08;;;;;;;6.86;62.11;99387.69;4958750;28;20084;-66
2023/10/27 11:08:45;;;;;;;8.82;3.60;;;;;;;6.80;61.91;99381.94;4957525;28;20128;-67
2023/10/27 11:11:16;;;;;;;5.47;2.65;;;;;;;6.82;62.38;99382.69;4952515;28;20042;-66
2023/10/27 11:13:43;;;;;;;5.95;3.03;;;;;;;6.74;62.28;99385.66;4958893;28;20074;-66
2023/10/27 11:16:19;;;;;;;5.97;3.28;;;;;;;6.76;62.01;99389.03;4961927;28;20707;-69
2023/10/27 11:18:46;;;;;;;10.43;3.35;;;;;;;6.81;62.01;99383.63;4958239;28;20043;-66
2023/10/27 11:21:19;;;;;;;10.70;4.75;;;;;;;6.91;62.10;99384.88;4961259;28;20362;-67
2023/10/27 11:23:45;;;;;;;5.18;2.78;;;;;;;7.06;61.48;99384.09;4956465;28;20051;-66
2023/10/27 11:26:11;;;;;;;6.88;3.75;;;;;;;7.07;61.36;99382.34;4953656;28;22024;-67
2023/10/27 11:28:41;;;;;;;6.40;3.58;;;;;;;6.97;61.91;99375.91;4956393;28;20059;-66
2023/10/27 11:31:21;;;;;;;7.97;3.58;;;;;;;7.15;61.46;99375.00;4953593;28;20038;-65
2023/10/27 11:34:04;;;;;;;9.02;4.30;;;;;;;7.27;61.29;99371.81;4958345;28;20042;-66
2023/10/27 11:36:39;;;;;;;7.00;2.92;;;;;;;7.05;61.61;99368.59;4956252;28;20296;-66
2023/10/27 11:39:22;;;;;;;6.93;3.88;;;;;;;7.11;61.46;99376.94;4953191;28;20134;-67